createdAt,value
2023-02-04T00:00:46.292Z,2.30
2023-02-04T00:01:49.142Z,2.30
2023-02-04T00:02:52.893Z,2.32
2023-02-04T00:03:55.525Z,2.52
2023-02-04T00:04:59.402Z,2.48
2023-02-04T00:06:02.226Z,2.40
2023-02-04T00:07:05.054Z,2.44
2023-02-04T00:08:09.206Z,2.50
2023-02-04T00:09:12.248Z,2.46
2023-02-04T00:10:15.180Z,2.44
2023-02-04T00:11:17.968Z,2.40
2023-02-04T00:12:20.741Z,2.44
2023-02-04T00:13:23.480Z,2.45
2023-02-04T00:14:26.171Z,2.37
2023-02-04T00:15:29.069Z,2.35
2023-02-04T00:16:31.969Z,2.27
2023-02-04T00:17:34.904Z,2.27
2023-02-04T00:18:38.053Z,2.27
2023-02-04T00:19:41.649Z,2.35
2023-02-04T00:20:44.459Z,2.34
2023-02-04T00:21:47.174Z,2.35
2023-02-04T00:22:51.541Z,2.32
2023-02-04T00:23:56.623Z,2.34
2023-02-04T00:24:59.370Z,2.39
2023-02-04T00:26:02.126Z,2.34
2023-02-04T00:27:06.355Z,2.44
2023-02-04T00:28:09.340Z,2.33
2023-02-04T00:29:12.208Z,2.30
2023-02-04T00:30:15.130Z,2.24
2023-02-04T00:31:17.921Z,2.39
2023-02-04T00:32:20.877Z,2.39
2023-02-04T00:33:23.728Z,2.34
2023-02-04T00:34:26.663Z,2.33
2023-02-04T00:35:29.577Z,2.48
2023-02-04T00:36:32.663Z,2.46
2023-02-04T00:37:35.506Z,2.52
2023-02-04T00:38:38.328Z,2.54
2023-02-04T00:39:41.319Z,2.52
2023-02-04T00:40:43.978Z,2.45
2023-02-04T00:41:46.761Z,2.43
2023-02-04T00:42:49.649Z,2.43
2023-02-04T00:43:52.325Z,2.55
2023-02-04T00:44:55.228Z,2.54
2023-02-04T00:45:58.243Z,2.56
2023-02-04T00:47:01.155Z,2.56
2023-02-04T00:48:04.206Z,2.50
2023-02-04T00:49:10.951Z,2.52
2023-02-04T00:50:14.158Z,2.54
2023-02-04T00:51:16.854Z,2.59
2023-02-04T00:52:19.617Z,2.55
2023-02-04T00:53:22.335Z,2.50
2023-02-04T00:54:25.124Z,2.45
2023-02-04T00:55:28.251Z,2.50
2023-02-04T00:56:31.044Z,2.50
2023-02-04T00:57:34.665Z,2.49
2023-02-04T00:58:37.405Z,2.47
2023-02-04T00:59:40.361Z,2.42
2023-02-04T01:00:43.170Z,2.36
2023-02-04T01:01:46.512Z,2.53
2023-02-04T01:02:49.373Z,2.49
2023-02-04T01:03:52.327Z,2.55
2023-02-04T01:04:55.195Z,2.53
2023-02-04T01:05:58.669Z,2.74
2023-02-04T01:07:01.718Z,2.58
2023-02-04T01:08:04.664Z,2.58
2023-02-04T01:09:08.534Z,2.62
2023-02-04T01:10:12.062Z,2.59
2023-02-04T01:11:20.028Z,2.52
2023-02-04T01:12:25.345Z,2.50
2023-02-04T01:13:28.246Z,2.48
2023-02-04T01:14:31.141Z,2.57
2023-02-04T01:15:34.629Z,2.67
2023-02-04T01:16:37.467Z,2.62
2023-02-04T01:17:41.950Z,2.68
2023-02-04T01:18:45.552Z,2.64
2023-02-04T01:19:48.337Z,2.63
2023-02-04T01:20:51.226Z,2.65
2023-02-04T01:21:54.123Z,2.66
2023-02-04T01:22:57.048Z,2.73
2023-02-04T01:23:59.909Z,2.71
2023-02-04T01:25:02.940Z,2.72
2023-02-04T01:26:05.884Z,2.65
2023-02-04T01:27:09.014Z,2.66
2023-02-04T01:28:12.131Z,2.68
2023-02-04T01:29:14.839Z,2.64
2023-02-04T01:30:17.912Z,2.65
2023-02-04T01:31:20.843Z,2.67
2023-02-04T01:32:23.632Z,2.69
2023-02-04T01:33:26.354Z,2.61
2023-02-04T01:34:31.697Z,2.60
2023-02-04T01:35:34.415Z,2.74
2023-02-04T01:36:37.114Z,2.71
2023-02-04T01:37:40.417Z,2.73
2023-02-04T01:38:43.171Z,2.62
2023-02-04T01:39:45.858Z,2.67
2023-02-04T01:40:48.619Z,2.63
2023-02-04T01:41:51.409Z,2.64
2023-02-04T01:42:54.560Z,2.62
2023-02-04T01:43:58.583Z,2.65
2023-02-04T01:45:01.564Z,2.64
2023-02-04T01:46:05.705Z,2.66
2023-02-04T01:47:09.143Z,2.63
2023-02-04T01:48:14.335Z,2.72
2023-02-04T01:49:17.777Z,2.68
2023-02-04T01:50:20.658Z,2.70
2023-02-04T01:51:28.652Z,2.74
2023-02-04T01:52:38.874Z,2.71
2023-02-04T01:53:42.949Z,2.71
2023-02-04T01:54:45.823Z,2.72
2023-02-04T01:55:49.535Z,2.74
2023-02-04T01:56:52.496Z,2.69
2023-02-04T01:57:59.109Z,2.70
2023-02-04T01:59:02.196Z,2.76
2023-02-04T02:00:13.561Z,2.85
2023-02-04T02:01:35.054Z,2.84
2023-02-04T02:02:42.492Z,2.77
2023-02-04T02:03:45.424Z,2.73
2023-02-04T02:04:48.244Z,2.90
2023-02-04T02:05:54.276Z,2.84
2023-02-04T02:07:01.955Z,2.93
2023-02-04T02:08:06.734Z,3.01
2023-02-04T02:09:09.391Z,2.90
2023-02-04T02:10:13.829Z,2.94
2023-02-04T02:11:16.776Z,2.88
2023-02-04T02:12:19.580Z,2.92
2023-02-04T02:13:22.582Z,2.91
2023-02-04T02:14:25.587Z,2.97
2023-02-04T02:15:28.336Z,2.92
2023-02-04T02:16:31.370Z,2.81
2023-02-04T02:17:34.840Z,2.82
2023-02-04T02:18:37.890Z,2.87
2023-02-04T02:19:42.618Z,2.90
2023-02-04T02:20:45.722Z,2.95
2023-02-04T02:21:56.169Z,3.02
2023-02-04T02:23:33.049Z,3.04
2023-02-04T02:24:36.121Z,2.93
2023-02-04T02:25:39.306Z,2.99
2023-02-04T02:26:41.950Z,2.99
2023-02-04T02:27:45.099Z,2.94
2023-02-04T02:28:49.340Z,3.05
2023-02-04T02:29:52.431Z,3.03
2023-02-04T02:30:55.374Z,3.02
2023-02-04T02:31:59.249Z,2.88
2023-02-04T02:33:02.492Z,2.91
2023-02-04T02:34:05.200Z,2.95
2023-02-04T02:35:08.675Z,3.03
2023-02-04T02:36:11.756Z,2.98
2023-02-04T02:37:14.532Z,3.00
2023-02-04T02:38:19.542Z,3.00
2023-02-04T02:39:23.129Z,2.97
2023-02-04T02:40:26.018Z,3.02
2023-02-04T02:41:28.893Z,2.98
2023-02-04T02:42:31.895Z,3.06
2023-02-04T02:43:36.165Z,3.08
2023-02-04T02:44:38.992Z,3.04
2023-02-04T02:45:41.972Z,2.95
2023-02-04T02:46:45.386Z,3.00
2023-02-04T02:47:48.739Z,2.94
2023-02-04T02:48:51.436Z,2.96
2023-02-04T02:49:55.477Z,2.93
2023-02-04T02:50:58.539Z,2.93
2023-02-04T02:52:02.369Z,2.93
2023-02-04T02:53:10.921Z,2.94
2023-02-04T02:54:26.834Z,3.02
2023-02-04T02:55:30.073Z,3.04
2023-02-04T02:56:32.964Z,3.05
2023-02-04T02:57:35.866Z,3.04
2023-02-04T02:58:38.533Z,3.10
2023-02-04T02:59:42.354Z,3.13
2023-02-04T03:00:45.384Z,3.07
2023-02-04T03:01:51.285Z,3.01
2023-02-04T03:02:57.209Z,2.98
2023-02-04T03:04:00.076Z,3.03
2023-02-04T03:05:02.949Z,2.91
2023-02-04T03:06:13.112Z,2.91
2023-02-04T03:07:20.917Z,2.91
2023-02-04T03:08:25.001Z,3.04
2023-02-04T03:09:28.478Z,2.89
2023-02-04T03:10:31.681Z,2.99
2023-02-04T03:11:34.585Z,2.99
2023-02-04T03:12:37.635Z,2.92
2023-02-04T03:13:40.880Z,2.88
2023-02-04T03:14:43.842Z,2.89
2023-02-04T03:15:48.707Z,3.09
2023-02-04T03:16:53.544Z,3.00
2023-02-04T03:17:56.878Z,3.09
2023-02-04T03:19:04.087Z,3.10
2023-02-04T03:20:08.001Z,3.09
2023-02-04T03:21:10.770Z,3.04
2023-02-04T03:22:13.708Z,3.05
2023-02-04T03:23:16.740Z,3.02
2023-02-04T03:24:19.465Z,3.00
2023-02-04T03:25:25.018Z,3.06
2023-02-04T03:26:28.106Z,3.03
2023-02-04T03:27:31.168Z,2.97
2023-02-04T03:28:34.673Z,2.88
2023-02-04T03:29:44.092Z,3.02
2023-02-04T03:30:53.946Z,3.10
2023-02-04T03:32:00.133Z,3.11
2023-02-04T03:33:03.290Z,2.96
2023-02-04T03:34:06.101Z,3.04
2023-02-04T03:35:09.108Z,3.07
2023-02-04T03:36:12.056Z,3.06
2023-02-04T03:37:14.957Z,3.01
2023-02-04T03:38:19.959Z,2.95
2023-02-04T03:39:23.100Z,2.95
2023-02-04T03:40:25.829Z,3.07
2023-02-04T03:41:29.817Z,3.04
2023-02-04T03:42:32.612Z,3.05
2023-02-04T03:43:35.447Z,3.02
2023-02-04T03:44:38.199Z,2.98
2023-02-04T03:45:45.625Z,2.91
2023-02-04T03:46:49.027Z,2.94
2023-02-04T03:47:51.681Z,2.94
2023-02-04T03:48:54.496Z,2.98
2023-02-04T03:49:58.753Z,2.85
2023-02-04T03:51:01.687Z,2.80
2023-02-04T03:52:04.936Z,2.87
2023-02-04T03:53:08.031Z,2.99
2023-02-04T03:54:10.713Z,2.93
2023-02-04T03:55:13.504Z,2.81
2023-02-04T03:56:16.624Z,2.84
2023-02-04T03:57:19.548Z,2.84
2023-02-04T03:58:23.100Z,2.86
2023-02-04T03:59:25.854Z,2.87
2023-02-04T04:00:28.923Z,2.99
2023-02-04T04:01:32.034Z,2.81
2023-02-04T04:02:34.829Z,2.86
2023-02-04T04:03:37.804Z,2.91
2023-02-04T04:04:40.690Z,2.80
2023-02-04T04:05:43.496Z,2.77
2023-02-04T04:06:46.304Z,2.71
2023-02-04T04:07:49.124Z,2.81
2023-02-04T04:08:52.014Z,2.87
2023-02-04T04:09:55.012Z,2.81
2023-02-04T04:11:00.335Z,2.76
2023-02-04T04:12:04.746Z,2.67
2023-02-04T04:13:07.421Z,2.72
2023-02-04T04:14:10.060Z,2.69
2023-02-04T04:15:13.151Z,2.70
2023-02-04T04:16:16.105Z,2.74
2023-02-04T04:17:18.915Z,2.72
2023-02-04T04:18:21.961Z,2.74
2023-02-04T04:19:25.069Z,2.82
2023-02-04T04:20:29.334Z,2.90
2023-02-04T04:21:32.245Z,2.85
2023-02-04T04:22:34.952Z,2.77
2023-02-04T04:23:38.196Z,2.78
2023-02-04T04:24:41.882Z,2.76
2023-02-04T04:25:44.586Z,2.89
2023-02-04T04:26:47.360Z,2.77
2023-02-04T04:27:50.101Z,2.79
2023-02-04T04:28:52.923Z,2.84
2023-02-04T04:29:55.838Z,2.93
2023-02-04T04:30:58.892Z,3.00
2023-02-04T04:32:01.791Z,3.03
2023-02-04T04:33:04.523Z,3.06
2023-02-04T04:34:07.328Z,3.00
2023-02-04T04:35:10.143Z,3.04
2023-02-04T04:36:13.053Z,3.13
2023-02-04T04:37:16.227Z,3.22
2023-02-04T04:38:19.329Z,3.21
2023-02-04T04:39:22.338Z,3.12
2023-02-04T04:40:25.020Z,3.10
2023-02-04T04:41:27.925Z,3.16
2023-02-04T04:42:30.696Z,3.17
2023-02-04T04:43:33.487Z,3.18
2023-02-04T04:44:36.210Z,3.14
2023-02-04T04:45:39.010Z,3.16
2023-02-04T04:46:41.882Z,3.13
2023-02-04T04:47:44.611Z,3.11
2023-02-04T04:48:47.741Z,3.13
2023-02-04T04:49:51.335Z,3.12
2023-02-04T04:50:54.013Z,3.03
2023-02-04T04:51:56.907Z,3.06
2023-02-04T04:52:59.765Z,3.07
2023-02-04T04:54:02.563Z,3.16
2023-02-04T04:55:06.531Z,3.18
2023-02-04T04:56:09.343Z,3.23
2023-02-04T04:57:12.174Z,3.24
2023-02-04T04:58:15.259Z,3.33
2023-02-04T04:59:17.980Z,3.28
2023-02-04T05:00:21.672Z,3.25
2023-02-04T05:01:24.667Z,3.10
2023-02-04T05:02:27.678Z,3.14
2023-02-04T05:03:30.719Z,3.19
2023-02-04T05:04:33.581Z,3.16
2023-02-04T05:05:40.208Z,3.12
2023-02-04T05:06:43.183Z,3.08
2023-02-04T05:07:46.206Z,3.16
2023-02-04T05:08:49.022Z,3.17
2023-02-04T05:09:52.030Z,3.13
2023-02-04T05:10:54.931Z,3.16
2023-02-04T05:11:57.968Z,3.29
2023-02-04T05:13:00.967Z,3.28
2023-02-04T05:14:03.816Z,3.28
2023-02-04T05:15:07.165Z,3.25
2023-02-04T05:16:12.403Z,3.16
2023-02-04T05:17:15.127Z,3.12
2023-02-04T05:18:17.877Z,3.15
2023-02-04T05:19:20.711Z,3.15
2023-02-04T05:20:23.488Z,3.16
2023-02-04T05:21:26.397Z,3.30
2023-02-04T05:22:29.277Z,3.27
2023-02-04T05:23:32.142Z,3.23
2023-02-04T05:24:34.922Z,3.24
2023-02-04T05:25:37.873Z,3.29
2023-02-04T05:26:40.893Z,3.30
2023-02-04T05:27:44.321Z,3.25
2023-02-04T05:28:47.269Z,3.28
2023-02-04T05:29:50.361Z,3.31
2023-02-04T05:30:53.313Z,3.27
2023-02-04T05:31:56.281Z,3.25
2023-02-04T05:32:59.038Z,3.16
2023-02-04T05:34:02.205Z,3.13
2023-02-04T05:35:05.792Z,3.08
2023-02-04T05:36:08.592Z,3.21
2023-02-04T05:37:11.360Z,3.17
2023-02-04T05:38:14.317Z,3.14
2023-02-04T05:39:17.274Z,3.10
2023-02-04T05:40:20.202Z,2.99
2023-02-04T05:41:22.968Z,3.04
2023-02-04T05:42:25.826Z,2.97
2023-02-04T05:43:28.658Z,2.81
2023-02-04T05:44:31.540Z,2.80
2023-02-04T05:45:34.449Z,2.81
2023-02-04T05:46:37.892Z,2.78
2023-02-04T05:47:40.654Z,2.71
2023-02-04T05:48:45.881Z,2.63
2023-02-04T05:49:48.878Z,2.59
2023-02-04T05:50:51.630Z,2.58
2023-02-04T05:51:54.333Z,2.67
2023-02-04T05:52:57.047Z,2.58
2023-02-04T05:53:59.726Z,2.57
2023-02-04T05:55:03.106Z,2.46
2023-02-04T05:56:06.543Z,2.46
2023-02-04T05:57:09.395Z,2.53
2023-02-04T05:58:12.179Z,2.51
2023-02-04T05:59:15.461Z,2.52
2023-02-04T06:00:18.481Z,2.42
2023-02-04T06:01:21.315Z,2.38
2023-02-04T06:02:24.115Z,2.31
2023-02-04T06:03:27.393Z,2.30
2023-02-04T06:04:30.282Z,2.25
2023-02-04T06:05:33.231Z,2.22
2023-02-04T06:06:36.701Z,2.27
2023-02-04T06:07:39.527Z,2.25
2023-02-04T06:08:42.362Z,2.22
2023-02-04T06:09:45.440Z,2.21
2023-02-04T06:10:48.274Z,2.18
2023-02-04T06:11:51.257Z,2.09
2023-02-04T06:12:54.978Z,2.10
2023-02-04T06:13:57.952Z,2.06
2023-02-04T06:15:00.617Z,2.01
2023-02-04T06:16:03.520Z,1.99
2023-02-04T06:17:06.329Z,2.16
2023-02-04T06:18:09.558Z,2.16
2023-02-04T06:19:13.894Z,2.04
2023-02-04T06:20:16.796Z,2.03
2023-02-04T06:21:19.633Z,1.95
2023-02-04T06:22:24.584Z,1.96
2023-02-04T06:23:27.345Z,1.93
2023-02-04T06:24:30.193Z,1.84
2023-02-04T06:25:33.239Z,1.81
2023-02-04T06:26:36.442Z,1.83
2023-02-04T06:27:39.216Z,1.86
2023-02-04T06:28:41.999Z,1.86
2023-02-04T06:29:44.718Z,1.81
2023-02-04T06:30:49.727Z,1.91
2023-02-04T06:31:52.647Z,1.87
2023-02-04T06:32:55.375Z,1.84
2023-02-04T06:33:58.275Z,1.85
2023-02-04T06:35:01.025Z,1.81
2023-02-04T06:36:05.048Z,1.88
2023-02-04T06:37:07.803Z,1.99
2023-02-04T06:38:10.608Z,1.96
2023-02-04T06:39:13.497Z,2.00
2023-02-04T06:40:16.616Z,1.89
2023-02-04T06:41:19.398Z,1.92
2023-02-04T06:42:22.102Z,1.84
2023-02-04T06:43:25.776Z,1.86
2023-02-04T06:44:28.496Z,1.76
2023-02-04T06:45:31.254Z,1.78
2023-02-04T06:46:34.095Z,1.73
2023-02-04T06:47:37.058Z,1.84
2023-02-04T06:48:39.859Z,1.88
2023-02-04T06:49:43.105Z,1.84
2023-02-04T06:50:45.934Z,1.78
2023-02-04T06:51:49.502Z,1.81
2023-02-04T06:52:52.250Z,1.71
2023-02-04T06:53:55.072Z,1.72
2023-02-04T06:54:57.911Z,1.73
2023-02-04T06:56:00.644Z,1.80
2023-02-04T06:57:09.634Z,1.82
2023-02-04T06:58:12.651Z,1.74
2023-02-04T06:59:15.446Z,1.76
2023-02-04T07:00:18.755Z,1.78
2023-02-04T07:01:21.503Z,1.69
2023-02-04T07:02:24.538Z,1.75
2023-02-04T07:03:27.534Z,1.84
2023-02-04T07:04:30.734Z,1.78
2023-02-04T07:05:34.280Z,1.67
2023-02-04T07:06:37.406Z,1.71
2023-02-04T07:07:40.409Z,1.74
2023-02-04T07:08:43.257Z,1.74
2023-02-04T07:09:46.009Z,1.61
2023-02-04T07:10:48.954Z,1.58
2023-02-04T07:11:51.711Z,1.61
2023-02-04T07:12:54.504Z,1.69
2023-02-04T07:13:57.184Z,1.66
2023-02-04T07:15:00.017Z,1.62
2023-02-04T07:16:02.980Z,1.55
2023-02-04T07:17:05.984Z,1.48
2023-02-04T07:18:08.742Z,1.42
2023-02-04T07:19:11.814Z,1.42
2023-02-04T07:20:15.256Z,1.37
2023-02-04T07:21:18.135Z,1.23
2023-02-04T07:22:21.266Z,1.24
2023-02-04T07:23:25.543Z,1.19
2023-02-04T07:24:28.756Z,1.25
2023-02-04T07:25:31.590Z,1.20
2023-02-04T07:26:34.600Z,1.03
2023-02-04T07:27:37.807Z,1.00
2023-02-04T07:28:42.599Z,1.06
2023-02-04T07:29:45.542Z,1.05
2023-02-04T07:30:48.707Z,1.02
2023-02-04T07:31:54.770Z,1.06
2023-02-04T07:32:58.177Z,1.19
2023-02-04T07:34:01.142Z,1.19
2023-02-04T07:35:04.360Z,1.11
2023-02-04T07:36:07.620Z,1.03
2023-02-04T07:37:10.468Z,1.07
2023-02-04T07:38:13.970Z,1.10
2023-02-04T07:39:17.021Z,1.19
2023-02-04T07:40:19.749Z,1.19
2023-02-04T07:41:22.522Z,1.24
2023-02-04T07:42:25.605Z,1.22
2023-02-04T07:43:28.629Z,1.19
2023-02-04T07:44:31.568Z,1.39
2023-02-04T07:45:34.482Z,1.33
2023-02-04T07:46:37.927Z,1.39
2023-02-04T07:47:41.155Z,1.36
2023-02-04T07:48:44.194Z,1.34
2023-02-04T07:49:46.948Z,1.43
2023-02-04T07:50:49.860Z,1.44
2023-02-04T07:51:52.580Z,1.50
2023-02-04T07:52:56.434Z,1.34
2023-02-04T07:53:59.251Z,1.31
2023-02-04T07:55:02.012Z,1.29
2023-02-04T07:56:05.314Z,1.41
2023-02-04T07:57:08.133Z,1.43
2023-02-04T07:58:10.974Z,1.38
2023-02-04T07:59:14.454Z,1.46
2023-02-04T08:00:17.289Z,1.53
2023-02-04T08:01:20.079Z,1.55
2023-02-04T08:02:23.092Z,1.44
2023-02-04T08:03:25.850Z,1.45
2023-02-04T08:04:28.544Z,1.58
2023-02-04T08:05:31.314Z,1.58
2023-02-04T08:06:34.127Z,1.61
2023-02-04T08:07:36.959Z,1.57
2023-02-04T08:08:39.865Z,1.54
2023-02-04T08:09:42.636Z,1.58
2023-02-04T08:10:45.378Z,1.47
2023-02-04T08:11:48.423Z,1.51
2023-02-04T08:12:51.133Z,1.52
2023-02-04T08:13:53.811Z,1.55
2023-02-04T08:14:56.568Z,1.52
2023-02-04T08:15:59.552Z,1.56
2023-02-04T08:17:02.627Z,1.47
2023-02-04T08:18:05.705Z,1.49
2023-02-04T08:19:08.447Z,1.53
2023-02-04T08:20:11.890Z,1.58
2023-02-04T08:21:14.968Z,1.64
2023-02-04T08:22:17.614Z,1.51
2023-02-04T08:23:20.663Z,1.49
2023-02-04T08:24:23.388Z,1.40
2023-02-04T08:25:26.677Z,1.28
2023-02-04T08:26:29.307Z,1.22
2023-02-04T08:27:32.193Z,1.18
2023-02-04T08:28:35.069Z,1.22
2023-02-04T08:29:37.923Z,1.18
2023-02-04T08:30:41.029Z,1.14
2023-02-04T08:31:43.803Z,1.07
2023-02-04T08:32:46.637Z,1.11
2023-02-04T08:33:49.301Z,1.18
2023-02-04T08:34:51.983Z,0.96
2023-02-04T08:35:54.576Z,0.99
2023-02-04T08:36:57.189Z,1.11
2023-02-04T08:37:59.892Z,1.15
2023-02-04T08:39:02.638Z,1.14
2023-02-04T08:40:05.933Z,1.14
2023-02-04T08:41:08.829Z,1.05
2023-02-04T08:42:11.537Z,0.93
2023-02-04T08:43:14.349Z,0.95
2023-02-04T08:44:17.415Z,1.08
2023-02-04T08:45:20.067Z,1.11
2023-02-04T08:46:23.005Z,1.03
2023-02-04T08:47:26.001Z,0.97
2023-02-04T08:48:28.895Z,1.04
2023-02-04T08:49:31.703Z,1.02
2023-02-04T08:50:34.655Z,1.05
2023-02-04T08:51:37.525Z,1.22
2023-02-04T08:52:40.242Z,1.06
2023-02-04T08:53:43.049Z,1.08
2023-02-04T08:54:45.771Z,1.05
2023-02-04T08:55:48.540Z,1.07
2023-02-04T08:56:51.206Z,1.05
2023-02-04T08:57:54.069Z,1.17
2023-02-04T08:58:56.782Z,1.28
2023-02-04T08:59:59.710Z,1.25
2023-02-04T09:01:02.970Z,1.32
2023-02-04T09:02:05.759Z,1.22
2023-02-04T09:03:09.010Z,1.31
2023-02-04T09:04:11.800Z,1.26
2023-02-04T09:05:14.875Z,1.20
2023-02-04T09:06:17.626Z,1.23
2023-02-04T09:07:21.172Z,1.12
2023-02-04T09:08:24.603Z,1.12
2023-02-04T09:09:27.463Z,1.36
2023-02-04T09:10:30.773Z,1.72
2023-02-04T09:11:33.638Z,1.93
2023-02-04T09:12:36.347Z,2.40
2023-02-04T09:13:39.721Z,2.57
2023-02-04T09:14:42.467Z,2.70
2023-02-04T09:15:45.161Z,2.88
2023-02-04T09:16:49.235Z,2.91
2023-02-04T09:18:04.832Z,3.25
2023-02-04T09:19:09.558Z,3.51
2023-02-04T09:20:12.897Z,3.77
2023-02-04T09:21:15.665Z,3.69
2023-02-04T09:22:18.493Z,4.03
2023-02-04T09:23:21.586Z,4.27
2023-02-04T09:24:25.419Z,4.03
2023-02-04T09:25:28.391Z,4.09
2023-02-04T09:26:31.104Z,4.27
2023-02-04T09:27:33.993Z,4.48
2023-02-04T09:28:37.468Z,4.27
2023-02-04T09:29:40.373Z,4.33
2023-02-04T09:30:45.752Z,4.29
2023-02-04T09:31:49.350Z,4.22
2023-02-04T09:32:52.292Z,4.14
2023-02-04T09:33:55.263Z,4.51
2023-02-04T09:34:58.189Z,4.77
2023-02-04T09:36:01.166Z,4.61
2023-02-04T09:37:04.145Z,4.97
2023-02-04T09:38:07.422Z,4.58
2023-02-04T09:39:10.476Z,4.38
2023-02-04T09:40:18.075Z,4.54
2023-02-04T09:41:21.112Z,4.68
2023-02-04T09:42:26.676Z,4.78
2023-02-04T09:43:36.164Z,5.09
2023-02-04T09:44:39.205Z,5.35
2023-02-04T09:45:42.315Z,5.57
2023-02-04T09:46:51.355Z,5.25
2023-02-04T09:47:56.463Z,5.35
2023-02-04T09:49:00.618Z,5.65
2023-02-04T09:50:03.492Z,5.74
2023-02-04T09:51:08.609Z,5.42
2023-02-04T09:52:15.052Z,5.39
2023-02-04T09:53:23.509Z,5.21
2023-02-04T09:54:26.300Z,4.65
2023-02-04T09:55:32.218Z,4.45
2023-02-04T09:56:35.232Z,4.21
2023-02-04T09:57:38.088Z,4.01
2023-02-04T09:58:42.908Z,3.75
2023-02-04T09:59:46.530Z,3.41
2023-02-04T10:01:15.217Z,3.19
2023-02-04T10:02:21.857Z,3.04
2023-02-04T10:03:24.909Z,3.05
2023-02-04T10:04:28.736Z,2.80
2023-02-04T10:05:34.850Z,2.78
2023-02-04T10:06:38.338Z,2.56
2023-02-04T10:07:41.800Z,2.51
2023-02-04T10:08:45.549Z,2.51
2023-02-04T10:09:50.374Z,2.50
2023-02-04T10:10:53.204Z,2.65
2023-02-04T10:11:56.082Z,2.57
2023-02-04T10:13:02.578Z,2.40
2023-02-04T10:14:05.641Z,2.50
2023-02-04T10:15:15.030Z,2.45
2023-02-04T10:16:31.477Z,2.30
2023-02-04T10:17:34.385Z,2.25
2023-02-04T10:18:38.211Z,2.22
2023-02-04T10:19:41.076Z,2.33
2023-02-04T10:20:44.225Z,2.34
2023-02-04T10:21:48.216Z,2.24
2023-02-04T10:22:54.271Z,2.34
2023-02-04T10:23:59.572Z,2.38
2023-02-04T10:25:02.326Z,2.30
2023-02-04T10:26:05.420Z,2.21
2023-02-04T10:27:16.302Z,2.22
2023-02-04T10:28:18.961Z,2.13
2023-02-04T10:29:26.798Z,2.17
2023-02-04T10:30:35.885Z,2.12
2023-02-04T10:31:41.891Z,2.20
2023-02-04T10:32:45.581Z,2.32
2023-02-04T10:33:48.648Z,2.37
2023-02-04T10:34:51.614Z,2.49
2023-02-04T10:35:57.111Z,2.51
2023-02-04T10:37:01.352Z,2.42
2023-02-04T10:38:07.053Z,2.57
2023-02-04T10:39:17.214Z,2.52
2023-02-04T10:40:29.275Z,2.39
2023-02-04T10:41:33.748Z,2.39
2023-02-04T10:42:36.817Z,2.52
2023-02-04T10:43:39.786Z,2.43
2023-02-04T10:44:48.147Z,2.50
2023-02-04T10:46:01.488Z,2.50
2023-02-04T10:47:06.066Z,2.50
2023-02-04T10:48:17.128Z,2.53
2023-02-04T10:49:24.974Z,2.56
2023-02-04T10:50:31.053Z,2.55
2023-02-04T10:51:34.429Z,2.56
2023-02-04T10:52:44.253Z,2.71
2023-02-04T10:54:05.760Z,2.91
2023-02-04T10:55:17.094Z,3.01
2023-02-04T10:56:22.791Z,3.09
2023-02-04T10:57:30.368Z,3.22
2023-02-04T10:58:33.676Z,3.30
2023-02-04T10:59:37.153Z,3.42
2023-02-04T11:00:41.329Z,3.76
2023-02-04T11:01:44.258Z,3.88
2023-02-04T11:02:57.694Z,3.97
2023-02-04T11:04:00.625Z,4.42
2023-02-04T11:05:07.187Z,4.31
2023-02-04T11:06:18.740Z,4.42
2023-02-04T11:07:23.085Z,4.26
2023-02-04T11:08:36.895Z,4.16
2023-02-04T11:09:44.037Z,4.03
2023-02-04T11:10:56.767Z,3.73
2023-02-04T11:12:00.467Z,3.60
2023-02-04T11:13:06.423Z,3.63
2023-02-04T11:14:23.771Z,3.60
2023-02-04T11:15:40.607Z,3.47
2023-02-04T11:16:48.817Z,3.54
2023-02-04T11:18:04.417Z,3.43
2023-02-04T11:19:12.663Z,3.49
2023-02-04T11:20:17.584Z,3.38
2023-02-04T11:21:34.477Z,3.29
2023-02-04T11:22:43.245Z,3.11
2023-02-04T11:23:46.117Z,3.02
2023-02-04T11:24:49.703Z,3.19
2023-02-04T11:26:09.234Z,3.29
2023-02-04T11:27:36.733Z,3.46
2023-02-04T11:28:40.989Z,3.39
2023-02-04T11:29:43.771Z,3.53
2023-02-04T11:30:46.620Z,3.75
2023-02-04T11:31:49.652Z,4.35
2023-02-04T11:33:24.142Z,4.49
2023-02-04T11:34:30.403Z,5.07
2023-02-04T11:35:33.910Z,4.88
2023-02-04T11:37:00.016Z,4.70
2023-02-04T11:38:02.848Z,5.34
2023-02-04T11:39:16.979Z,5.29
2023-02-04T11:40:29.334Z,5.51
2023-02-04T11:41:33.863Z,5.27
2023-02-04T11:42:42.233Z,5.36
2023-02-04T11:43:45.228Z,5.64
2023-02-04T11:45:03.044Z,6.25
2023-02-04T11:46:19.496Z,6.25
2023-02-04T11:47:25.152Z,6.06
2023-02-04T11:48:28.497Z,6.99
2023-02-04T11:49:31.916Z,7.36
2023-02-04T11:50:38.583Z,7.32
2023-02-04T11:51:41.425Z,7.36
2023-02-04T11:52:44.157Z,8.04
2023-02-04T11:53:52.585Z,8.17
2023-02-04T11:54:59.779Z,7.67
2023-02-04T11:56:02.595Z,7.98
2023-02-04T11:57:06.119Z,7.62
2023-02-04T11:58:16.001Z,7.57
2023-02-04T11:59:21.711Z,7.24
2023-02-04T12:00:28.982Z,6.31
2023-02-04T12:01:33.640Z,5.61
2023-02-04T12:03:08.495Z,5.66
2023-02-04T12:04:25.030Z,6.31
2023-02-04T12:05:42.556Z,6.79
2023-02-04T12:06:45.388Z,6.83
2023-02-04T12:07:49.296Z,6.93
2023-02-04T12:08:52.641Z,6.92
2023-02-04T12:09:56.552Z,6.80
2023-02-04T12:11:01.005Z,6.77
2023-02-04T12:12:04.922Z,6.78
2023-02-04T12:13:19.305Z,6.91
2023-02-04T12:14:22.797Z,7.23
2023-02-04T12:15:35.979Z,6.92
2023-02-04T12:16:46.555Z,7.42
2023-02-04T12:18:02.017Z,8.01
2023-02-04T12:19:04.728Z,7.97
2023-02-04T12:20:08.295Z,7.97
2023-02-04T12:21:11.193Z,7.41
2023-02-04T12:22:15.830Z,7.31
2023-02-04T12:23:18.570Z,7.15
2023-02-04T12:24:21.813Z,7.19
2023-02-04T12:25:24.938Z,7.82
2023-02-04T12:26:27.845Z,7.85
2023-02-04T12:27:30.894Z,7.19
2023-02-04T12:28:35.206Z,7.59
2023-02-04T12:29:38.497Z,7.21
2023-02-04T12:30:41.438Z,7.42
2023-02-04T12:31:44.364Z,8.24
2023-02-04T12:32:47.344Z,7.55
2023-02-04T12:33:50.611Z,7.94
2023-02-04T12:34:53.387Z,8.52
2023-02-04T12:35:56.265Z,8.72
2023-02-04T12:36:59.160Z,8.39
2023-02-04T12:38:02.029Z,7.90
2023-02-04T12:39:04.760Z,7.65
2023-02-04T12:40:08.444Z,7.79
2023-02-04T12:41:11.586Z,7.80
2023-02-04T12:42:14.283Z,7.94
2023-02-04T12:43:16.933Z,8.12
2023-02-04T12:44:19.830Z,8.44
2023-02-04T12:45:22.790Z,8.26
2023-02-04T12:46:25.970Z,8.46
2023-02-04T12:47:29.212Z,8.40
2023-02-04T12:48:32.096Z,8.72
2023-02-04T12:49:34.888Z,8.27
2023-02-04T12:50:37.640Z,8.34
2023-02-04T12:51:40.425Z,8.61
2023-02-04T12:52:43.189Z,7.82
2023-02-04T12:53:45.918Z,8.05
2023-02-04T12:54:48.656Z,8.15
2023-02-04T12:55:51.691Z,8.08
2023-02-04T12:56:58.447Z,7.92
2023-02-04T12:58:01.328Z,7.53
2023-02-04T12:59:04.399Z,6.77
2023-02-04T13:00:07.691Z,7.56
2023-02-04T13:01:10.579Z,7.16
2023-02-04T13:02:13.724Z,7.26
2023-02-04T13:03:16.551Z,6.96
2023-02-04T13:04:19.493Z,7.15
2023-02-04T13:05:22.404Z,7.49
2023-02-04T13:06:25.455Z,7.05
2023-02-04T13:07:28.283Z,7.73
2023-02-04T13:08:31.404Z,7.59
2023-02-04T13:09:35.509Z,7.48
2023-02-04T13:10:38.365Z,7.53
2023-02-04T13:11:41.309Z,7.75
2023-02-04T13:12:45.263Z,8.16
2023-02-04T13:13:48.678Z,7.32
2023-02-04T13:14:52.115Z,7.14
2023-02-04T13:15:54.996Z,7.14
2023-02-04T13:16:58.102Z,7.15
2023-02-04T13:18:01.195Z,6.94
2023-02-04T13:19:04.102Z,7.01
2023-02-04T13:20:10.971Z,6.77
2023-02-04T13:21:14.041Z,6.25
2023-02-04T13:22:17.078Z,6.01
2023-02-04T13:23:19.890Z,6.23
2023-02-04T13:24:22.796Z,6.00
2023-02-04T13:25:25.644Z,6.35
2023-02-04T13:26:28.612Z,6.20
2023-02-04T13:27:32.053Z,5.82
2023-02-04T13:28:36.921Z,5.92
2023-02-04T13:29:39.642Z,5.43
2023-02-04T13:30:42.576Z,5.77
2023-02-04T13:31:45.783Z,5.86
2023-02-04T13:32:48.596Z,5.51
2023-02-04T13:33:51.585Z,5.77
2023-02-04T13:34:54.253Z,5.30
2023-02-04T13:35:57.817Z,5.37
2023-02-04T13:37:00.685Z,5.28
2023-02-04T13:38:04.466Z,5.28
2023-02-04T13:39:07.532Z,5.00
2023-02-04T13:40:12.049Z,5.37
2023-02-04T13:41:14.920Z,5.48
2023-02-04T13:42:17.842Z,5.32
2023-02-04T13:43:20.723Z,5.08
2023-02-04T13:44:23.533Z,5.31
2023-02-04T13:45:26.572Z,4.94
2023-02-04T13:46:29.616Z,4.94
2023-02-04T13:47:32.509Z,5.32
2023-02-04T13:48:36.666Z,5.24
2023-02-04T13:49:39.968Z,5.16
2023-02-04T13:50:43.041Z,5.15
2023-02-04T13:51:45.866Z,5.40
2023-02-04T13:52:48.662Z,5.18
2023-02-04T13:53:52.146Z,4.96
2023-02-04T13:54:55.330Z,4.58
2023-02-04T13:55:58.974Z,4.55
2023-02-04T13:57:02.067Z,4.45
2023-02-04T13:58:05.456Z,4.61
2023-02-04T13:59:08.458Z,4.51
2023-02-04T14:00:12.297Z,4.65
2023-02-04T14:01:17.168Z,5.07
2023-02-04T14:02:21.441Z,5.01
2023-02-04T14:03:28.379Z,4.84
2023-02-04T14:04:31.328Z,5.10
2023-02-04T14:05:34.176Z,5.00
2023-02-04T14:06:43.563Z,4.65
2023-02-04T14:07:46.680Z,4.55
2023-02-04T14:08:49.553Z,4.62
2023-02-04T14:09:52.363Z,4.53
2023-02-04T14:10:55.259Z,4.52
2023-02-04T14:11:58.275Z,4.61
2023-02-04T14:13:01.375Z,4.53
2023-02-04T14:14:04.424Z,4.14